Time;durP1;ratioP1;P1;durP2;ratioP2;P2;SDS_P1;SDS_P2;PMS_P1;PMS_P2;Temp;Humidity;BMP_temperature;BMP_pressure;BME280_temperature;BME280_humidity;BME280_pressure;Samples;Min_cycle;Max_cycle;Signal;HPM_P1;HPM_P2
2021/07/18 00:01:46;;;;;;;11.12;6.37;;;;;;;;;;4204660;34;20149;-67
2021/07/18 00:04:12;;;;;;;14.75;5.70;;;;;;;;;;4204935;34;20125;-66
2021/07/18 00:06:38;;;;;;;10.40;5.43;;;;;;;;;;4191689;34;20600;-67
2021/07/18 00:09:05;;;;;;;7.70;5.03;;;;;;;;;;4204563;34;20120;-67
2021/07/18 00:11:31;;;;;;;13.00;5.70;;;;;;;;;;4204195;34;20193;-66
2021/07/18 00:13:56;;;;;;;17.92;6.87;;;;;;;;;;4204514;34;20450;-66
2021/07/18 00:16:22;;;;;;;13.50;6.68;;;;;;;;;;4204411;34;20120;-66
2021/07/18 00:18:48;;;;;;;15.18;7.22;;;;;;;;;;4204285;34;20118;-67
2021/07/18 00:21:14;;;;;;;13.45;6.85;;;;;;;;;;4204377;34;20116;-67
2021/07/18 00:23:40;;;;;;;12.65;6.32;;;;;;;;;;4204365;34;20126;-66
2021/07/18 00:26:06;;;;;;;18.30;6.87;;;;;;;;;;4204375;34;20109;-66
2021/07/18 00:28:32;;;;;;;18.83;6.32;;;;;;;;;;4204312;34;20136;-66
2021/07/18 00:30:58;;;;;;;14.68;6.12;;;;;;;;;;4204082;34;20110;-66
2021/07/18 00:33:24;;;;;;;9.93;6.28;;;;;;;;;;4204212;34;20144;-66
2021/07/18 00:35:50;;;;;;;10.40;5.93;;;;;;;;;;4204366;34;20465;-66
2021/07/18 00:38:16;;;;;;;14.93;5.37;;;;;;;;;;4204408;34;20128;-66
2021/07/18 00:40:41;;;;;;;9.70;5.53;;;;;;;;;;4204132;34;20106;-66
2021/07/18 00:43:07;;;;;;;12.20;6.53;;;;;;;;;;4204328;34;20554;-66
2021/07/18 00:45:33;;;;;;;10.35;5.60;;;;;;;;;;4203975;34;20521;-66
2021/07/18 00:47:59;;;;;;;8.95;5.97;;;;;;;;;;4191478;34;20121;-66
2021/07/18 00:50:25;;;;;;;9.38;5.75;;;;;;;;;;4204076;34;20237;-66
2021/07/18 00:52:51;;;;;;;9.38;6.22;;;;;;;;;;4204156;34;20133;-66
2021/07/18 00:55:17;;;;;;;11.15;6.20;;;;;;;;;;4204164;34;20205;-66
2021/07/18 00:57:45;;;;;;;9.45;5.47;;;;;;;;;;4191290;34;20121;-66
2021/07/18 01:00:11;;;;;;;10.02;5.75;;;;;;;;;;4191174;34;20102;-66
2021/07/18 01:02:38;;;;;;;9.02;5.57;;;;;;;;;;4203904;34;20137;-66
2021/07/18 01:05:08;;;;;;;14.02;7.68;;;;;;;;;;4203766;34;20208;-67
2021/07/18 01:07:34;;;;;;;7.93;5.87;;;;;;;;;;4203799;34;20125;-66
2021/07/18 01:10:01;;;;;;;8.63;6.07;;;;;;;;;;4203865;34;20121;-66
2021/07/18 01:12:27;;;;;;;10.88;6.10;;;;;;;;;;4203597;34;20116;-66
2021/07/18 01:14:53;;;;;;;9.15;5.82;;;;;;;;;;4190994;34;20121;-66
2021/07/18 01:17:19;;;;;;;8.13;5.97;;;;;;;;;;4203780;34;20125;-66
2021/07/18 01:19:44;;;;;;;8.32;5.65;;;;;;;;;;4203827;34;20125;-66
2021/07/18 01:22:10;;;;;;;13.60;7.28;;;;;;;;;;4203866;34;20121;-66
2021/07/18 01:24:36;;;;;;;7.65;5.70;;;;;;;;;;4206003;34;20124;-66
2021/07/18 01:27:04;;;;;;;10.85;5.80;;;;;;;;;;4205910;34;20101;-66
2021/07/18 01:29:30;;;;;;;7.70;6.30;;;;;;;;;;4193287;34;20130;-66
2021/07/18 01:31:56;;;;;;;8.85;5.97;;;;;;;;;;4205672;34;20220;-66
2021/07/18 01:34:22;;;;;;;14.57;7.37;;;;;;;;;;4205822;34;20209;-67
2021/07/18 01:36:48;;;;;;;16.08;6.03;;;;;;;;;;4205675;34;20128;-66
2021/07/18 01:39:14;;;;;;;13.13;6.75;;;;;;;;;;4192828;34;20121;-66
2021/07/18 01:41:40;;;;;;;15.32;6.82;;;;;;;;;;4205683;34;20137;-66
2021/07/18 01:44:06;;;;;;;17.23;6.45;;;;;;;;;;4205746;34;20109;-66
2021/07/18 01:46:32;;;;;;;9.55;5.82;;;;;;;;;;4205618;34;20205;-66
2021/07/18 01:48:58;;;;;;;15.20;6.05;;;;;;;;;;4205792;34;20222;-66
2021/07/18 01:51:25;;;;;;;15.57;6.75;;;;;;;;;;4205586;34;20102;-66
2021/07/18 01:53:52;;;;;;;13.00;6.20;;;;;;;;;;4205473;34;20101;-66
2021/07/18 01:56:19;;;;;;;10.60;6.93;;;;;;;;;;4205473;34;20209;-66
2021/07/18 01:58:47;;;;;;;9.20;6.80;;;;;;;;;;4205485;34;20105;-66
2021/07/18 02:01:12;;;;;;;9.60;7.10;;;;;;;;;;4205668;34;20205;-66
2021/07/18 02:03:38;;;;;;;12.82;7.28;;;;;;;;;;4205457;34;20451;-66
2021/07/18 02:06:04;;;;;;;13.02;7.32;;;;;;;;;;4205525;34;20132;-67
2021/07/18 02:08:30;;;;;;;12.63;8.05;;;;;;;;;;4205338;34;20149;-66
2021/07/18 02:10:56;;;;;;;18.67;7.12;;;;;;;;;;4205425;34;20122;-66
2021/07/18 02:13:22;;;;;;;9.50;7.00;;;;;;;;;;4205342;34;20152;-66
2021/07/18 02:15:48;;;;;;;14.95;8.52;;;;;;;;;;4205170;34;20098;-66
2021/07/18 02:18:13;;;;;;;16.52;10.35;;;;;;;;;;4205240;34;20199;-66
2021/07/18 02:20:39;;;;;;;22.80;9.30;;;;;;;;;;4205216;34;20128;-66
2021/07/18 02:23:05;;;;;;;15.05;8.48;;;;;;;;;;4181438;34;20149;-67
2021/07/18 02:25:31;;;;;;;17.23;8.88;;;;;;;;;;4205176;34;20573;-66
2021/07/18 02:27:57;;;;;;;21.87;8.70;;;;;;;;;;4205340;34;20133;-66
2021/07/18 02:30:24;;;;;;;14.52;8.27;;;;;;;;;;4205161;34;20489;-66
2021/07/18 02:32:51;;;;;;;13.18;7.55;;;;;;;;;;4205208;34;20094;-66
2021/07/18 02:35:17;;;;;;;16.10;8.68;;;;;;;;;;4192491;34;20178;-67
2021/07/18 02:37:44;;;;;;;13.77;7.25;;;;;;;;;;4205294;34;20141;-67
2021/07/18 02:40:10;;;;;;;11.10;6.97;;;;;;;;;;4205285;34;20129;-67
2021/07/18 02:42:36;;;;;;;10.82;6.25;;;;;;;;;;4205539;34;20117;-67
2021/07/18 02:45:04;;;;;;;9.93;6.85;;;;;;;;;;4205120;34;20136;-66
2021/07/18 02:47:30;;;;;;;10.80;7.78;;;;;;;;;;4205020;34;20141;-66
2021/07/18 02:49:56;;;;;;;14.30;6.07;;;;;;;;;;4205136;34;20593;-66
2021/07/18 02:52:22;;;;;;;11.68;6.85;;;;;;;;;;4192075;34;20189;-66
2021/07/18 02:54:50;;;;;;;9.25;6.22;;;;;;;;;;4205003;34;20116;-66
2021/07/18 02:57:17;;;;;;;9.73;6.32;;;;;;;;;;4204858;34;20133;-66
2021/07/18 02:59:43;;;;;;;9.82;6.62;;;;;;;;;;4205240;34;20122;-66
2021/07/18 03:02:09;;;;;;;8.02;5.95;;;;;;;;;;4204969;34;20544;-66
2021/07/18 03:04:35;;;;;;;13.43;6.53;;;;;;;;;;4204937;34;20089;-66
2021/07/18 03:07:01;;;;;;;12.63;6.00;;;;;;;;;;4204866;34;20110;-66
2021/07/18 03:09:27;;;;;;;9.80;6.47;;;;;;;;;;4204997;34;20130;-66
2021/07/18 03:11:53;;;;;;;10.40;6.30;;;;;;;;;;4204943;34;20191;-66
2021/07/18 03:14:19;;;;;;;10.98;7.07;;;;;;;;;;4205279;34;20105;-66
2021/07/18 03:16:47;;;;;;;10.48;6.68;;;;;;;;;;4204989;34;20189;-66
2021/07/18 03:19:13;;;;;;;13.25;7.30;;;;;;;;;;4205140;34;20148;-66
2021/07/18 03:21:39;;;;;;;8.73;6.40;;;;;;;;;;4204621;34;20460;-66
2021/07/18 03:24:05;;;;;;;6.55;5.60;;;;;;;;;;4204831;34;20131;-66
2021/07/18 03:26:31;;;;;;;19.12;6.05;;;;;;;;;;4204701;34;20126;-66
2021/07/18 03:28:57;;;;;;;10.50;6.30;;;;;;;;;;4204821;34;20136;-66
2021/07/18 03:31:23;;;;;;;9.82;6.05;;;;;;;;;;4204530;34;20140;-66
2021/07/18 03:33:49;;;;;;;10.00;5.78;;;;;;;;;;4204718;34;20128;-66
2021/07/18 03:36:15;;;;;;;10.93;6.80;;;;;;;;;;4204712;34;20551;-66
2021/07/18 03:38:40;;;;;;;11.60;7.50;;;;;;;;;;4204557;34;20125;-66
2021/07/18 03:41:06;;;;;;;11.57;6.80;;;;;;;;;;4204545;34;20177;-66
2021/07/18 03:43:32;;;;;;;13.73;7.62;;;;;;;;;;4204564;34;20124;-66
2021/07/18 03:45:58;;;;;;;11.15;7.18;;;;;;;;;;4191088;34;20222;-66
2021/07/18 03:48:24;;;;;;;15.32;7.40;;;;;;;;;;4204776;34;20140;-66
2021/07/18 03:50:50;;;;;;;15.68;7.35;;;;;;;;;;4204415;34;20122;-66
2021/07/18 03:53:16;;;;;;;15.48;7.30;;;;;;;;;;4204427;34;20132;-66
2021/07/18 03:55:42;;;;;;;12.02;7.05;;;;;;;;;;4204444;34;20094;-66
2021/07/18 03:58:08;;;;;;;13.93;6.78;;;;;;;;;;4191929;34;20139;-66
2021/07/18 04:00:34;;;;;;;13.73;8.07;;;;;;;;;;4204579;34;20120;-66
2021/07/18 04:03:00;;;;;;;13.57;7.15;;;;;;;;;;4204619;34;20155;-66
2021/07/18 04:05:26;;;;;;;13.55;7.70;;;;;;;;;;4204260;34;20535;-66
2021/07/18 04:07:52;;;;;;;10.10;6.35;;;;;;;;;;4204290;34;20593;-66
2021/07/18 04:10:18;;;;;;;9.95;6.55;;;;;;;;;;4204499;34;20117;-66
2021/07/18 04:12:44;;;;;;;7.55;5.45;;;;;;;;;;4204226;34;20582;-66
2021/07/18 04:15:10;;;;;;;7.20;5.22;;;;;;;;;;4204265;34;20454;-66
2021/07/18 04:17:36;;;;;;;8.05;5.50;;;;;;;;;;4204086;34;20298;-66
2021/07/18 04:20:03;;;;;;;12.20;5.62;;;;;;;;;;4204264;34;20129;-66
2021/07/18 04:22:29;;;;;;;9.45;5.40;;;;;;;;;;4204077;34;20106;-66
2021/07/18 04:24:55;;;;;;;8.07;5.32;;;;;;;;;;4204376;34;20212;-66
2021/07/18 04:27:21;;;;;;;8.10;5.53;;;;;;;;;;4204178;34;20151;-66
2021/07/18 04:29:47;;;;;;;9.45;4.22;;;;;;;;;;4204196;34;20114;-66
2021/07/18 04:32:13;;;;;;;7.03;4.95;;;;;;;;;;4191258;34;20129;-66
2021/07/18 04:34:43;;;;;;;8.80;4.65;;;;;;;;;;4204439;34;20110;-66
2021/07/18 04:37:11;;;;;;;6.25;4.45;;;;;;;;;;4204219;34;20614;-66
2021/07/18 04:39:38;;;;;;;6.37;4.35;;;;;;;;;;4204603;34;20469;-66
2021/07/18 04:42:04;;;;;;;7.50;4.78;;;;;;;;;;4191213;34;20171;-66
2021/07/18 04:44:30;;;;;;;8.93;4.68;;;;;;;;;;4204319;34;20197;-66
2021/07/18 04:46:56;;;;;;;13.52;4.00;;;;;;;;;;4204436;34;20465;-66
2021/07/18 04:49:23;;;;;;;8.18;4.57;;;;;;;;;;4204131;34;20214;-66
2021/07/18 04:51:49;;;;;;;10.60;3.83;;;;;;;;;;4204047;34;20196;-66
2021/07/18 04:54:15;;;;;;;7.57;4.80;;;;;;;;;;4204062;34;20205;-66
2021/07/18 04:56:41;;;;;;;7.35;3.90;;;;;;;;;;4203829;34;20544;-66
2021/07/18 04:59:07;;;;;;;6.72;3.90;;;;;;;;;;4205913;34;20125;-66
2021/07/18 05:01:33;;;;;;;9.07;4.05;;;;;;;;;;4206048;34;20597;-66
2021/07/18 05:03:58;;;;;;;7.28;4.32;;;;;;;;;;4206129;34;20137;-66
2021/07/18 05:06:24;;;;;;;7.62;3.62;;;;;;;;;;4205908;34;20114;-66
2021/07/18 05:08:50;;;;;;;6.65;3.72;;;;;;;;;;4206356;34;20144;-66
2021/07/18 05:11:19;;;;;;;6.00;3.05;;;;;;;;;;4206079;34;20101;-66
2021/07/18 05:13:52;;;;;;;5.43;2.90;;;;;;;;;;4206015;34;20137;-66
2021/07/18 05:16:18;;;;;;;5.28;3.20;;;;;;;;;;4205802;34;20609;-66
2021/07/18 05:18:45;;;;;;;4.90;3.40;;;;;;;;;;4206228;34;20136;-66
2021/07/18 05:21:10;;;;;;;3.78;3.10;;;;;;;;;;4206015;34;20110;-66
2021/07/18 05:23:36;;;;;;;10.70;3.55;;;;;;;;;;4193006;34;20145;-66
2021/07/18 05:26:02;;;;;;;5.45;2.97;;;;;;;;;;4205924;34;20220;-66
2021/07/18 05:28:28;;;;;;;3.40;2.92;;;;;;;;;;4206074;34;20237;-66
2021/07/18 05:30:54;;;;;;;4.25;3.17;;;;;;;;;;4192782;34;20473;-66
2021/07/18 05:33:20;;;;;;;5.55;2.80;;;;;;;;;;4205811;34;20341;-66
2021/07/18 05:35:46;;;;;;;3.95;2.95;;;;;;;;;;4205616;34;20443;-66
2021/07/18 05:38:12;;;;;;;6.28;2.87;;;;;;;;;;4205637;34;20212;-66
2021/07/18 05:40:37;;;;;;;8.57;3.10;;;;;;;;;;4205545;34;20104;-66
2021/07/18 05:43:03;;;;;;;3.35;2.90;;;;;;;;;;4205854;34;20140;-66
2021/07/18 05:45:29;;;;;;;4.12;2.92;;;;;;;;;;4205607;34;20478;-66
2021/07/18 05:47:55;;;;;;;4.15;3.70;;;;;;;;;;4205738;34;20128;-66
2021/07/18 05:50:21;;;;;;;5.78;3.17;;;;;;;;;;4205712;34;20106;-66
2021/07/18 05:52:47;;;;;;;4.60;3.70;;;;;;;;;;4205723;34;20109;-66
2021/07/18 05:55:13;;;;;;;6.35;3.00;;;;;;;;;;4205708;34;20117;-66
2021/07/18 05:57:39;;;;;;;5.15;3.00;;;;;;;;;;4205588;34;20116;-66
2021/07/18 06:00:06;;;;;;;6.00;3.30;;;;;;;;;;4205702;34;20113;-66
2021/07/18 06:02:32;;;;;;;11.18;3.65;;;;;;;;;;4205729;34;20122;-66
2021/07/18 06:04:58;;;;;;;6.95;3.50;;;;;;;;;;4205730;34;20229;-66
2021/07/18 06:07:24;;;;;;;8.35;3.80;;;;;;;;;;4205535;34;20189;-66
2021/07/18 06:09:50;;;;;;;4.80;3.60;;;;;;;;;;4205151;34;20234;-66
2021/07/18 06:12:16;;;;;;;5.00;3.65;;;;;;;;;;4192945;34;20106;-66
2021/07/18 06:14:43;;;;;;;4.72;3.97;;;;;;;;;;4205464;34;20137;-66
2021/07/18 06:17:11;;;;;;;3.60;3.03;;;;;;;;;;4205393;34;20565;-66
2021/07/18 06:19:38;;;;;;;3.83;3.25;;;;;;;;;;4205549;34;20097;-67
2021/07/18 06:22:04;;;;;;;3.47;2.92;;;;;;;;;;4205307;34;20118;-66
2021/07/18 06:24:30;;;;;;;7.55;3.03;;;;;;;;;;4205545;34;20117;-67
2021/07/18 06:26:56;;;;;;;3.85;3.12;;;;;;;;;;4205502;34;20125;-66
2021/07/18 06:29:22;;;;;;;4.07;3.03;;;;;;;;;;4205223;34;20104;-66
2021/07/18 06:31:48;;;;;;;6.47;2.90;;;;;;;;;;4205209;34;20144;-66
2021/07/18 06:34:14;;;;;;;6.85;2.70;;;;;;;;;;4205310;34;20129;-66
2021/07/18 06:36:40;;;;;;;7.90;2.80;;;;;;;;;;4205063;34;20461;-66
2021/07/18 06:39:06;;;;;;;4.70;2.25;;;;;;;;;;4205183;34;20137;-66
2021/07/18 06:41:31;;;;;;;3.65;3.00;;;;;;;;;;4205354;34;20537;-66
2021/07/18 06:43:57;;;;;;;3.78;2.95;;;;;;;;;;4205102;34;20130;-66
2021/07/18 06:46:23;;;;;;;4.15;2.50;;;;;;;;;;4192366;34;20196;-66
2021/07/18 06:48:49;;;;;;;5.07;2.70;;;;;;;;;;4204974;34;20132;-67
2021/07/18 06:51:15;;;;;;;3.10;2.80;;;;;;;;;;4204896;34;20229;-67
2021/07/18 06:53:41;;;;;;;4.60;2.97;;;;;;;;;;4204991;34;20140;-67
2021/07/18 06:56:07;;;;;;;3.37;2.65;;;;;;;;;;4205187;34;20148;-67
2021/07/18 06:58:32;;;;;;;3.22;2.50;;;;;;;;;;4205155;34;20538;-67
2021/07/18 07:00:58;;;;;;;3.30;2.67;;;;;;;;;;4192221;34;20124;-67
2021/07/18 07:03:24;;;;;;;3.33;2.80;;;;;;;;;;4205007;34;20121;-67
2021/07/18 07:05:50;;;;;;;4.40;2.78;;;;;;;;;;4205011;34;20180;-67
2021/07/18 07:08:16;;;;;;;2.87;2.53;;;;;;;;;;4205243;34;20236;-66
2021/07/18 07:10:42;;;;;;;2.65;2.40;;;;;;;;;;4204878;34;20217;-67
2021/07/18 07:13:08;;;;;;;3.70;3.08;;;;;;;;;;4192084;34;20541;-67
2021/07/18 07:15:34;;;;;;;3.85;2.78;;;;;;;;;;4204934;34;20129;-67
2021/07/18 07:18:00;;;;;;;3.17;2.78;;;;;;;;;;4204748;34;20245;-67
2021/07/18 07:20:28;;;;;;;3.72;2.83;;;;;;;;;;4191211;34;20128;-67
2021/07/18 07:22:54;;;;;;;8.15;3.33;;;;;;;;;;4191789;34;20531;-67
2021/07/18 07:25:20;;;;;;;7.03;2.58;;;;;;;;;;4204679;34;20240;-67
2021/07/18 07:27:46;;;;;;;3.15;2.60;;;;;;;;;;4204705;34;20105;-67
2021/07/18 07:30:13;;;;;;;4.07;2.65;;;;;;;;;;4191970;34;20522;-67
2021/07/18 07:32:39;;;;;;;2.00;1.90;;;;;;;;;;4204649;34;20098;-67
2021/07/18 07:35:07;;;;;;;4.32;2.75;;;;;;;;;;4191807;34;20546;-67
2021/07/18 07:37:34;;;;;;;2.58;2.28;;;;;;;;;;4204583;34;20186;-67
2021/07/18 07:40:02;;;;;;;3.72;2.80;;;;;;;;;;4204667;34;20299;-67
2021/07/18 07:42:28;;;;;;;2.78;2.45;;;;;;;;;;4204716;34;20208;-67
2021/07/18 07:44:54;;;;;;;3.15;2.58;;;;;;;;;;4204848;34;20213;-67
2021/07/18 07:47:20;;;;;;;3.72;2.70;;;;;;;;;;4204389;34;20204;-67
2021/07/18 07:49:46;;;;;;;5.30;3.87;;;;;;;;;;4204565;34;20121;-67
2021/07/18 07:52:12;;;;;;;3.50;2.65;;;;;;;;;;4204188;34;20193;-67
2021/07/18 07:54:41;;;;;;;10.95;2.85;;;;;;;;;;4204439;34;20166;-67
2021/07/18 07:57:07;;;;;;;5.22;2.30;;;;;;;;;;4204572;34;20102;-67
2021/07/18 07:59:33;;;;;;;9.80;3.45;;;;;;;;;;4204550;34;20121;-67
2021/07/18 08:01:59;;;;;;;6.70;2.58;;;;;;;;;;4204463;34;20109;-67
2021/07/18 08:04:25;;;;;;;3.15;2.37;;;;;;;;;;4204506;34;20117;-67
2021/07/18 08:06:51;;;;;;;4.00;2.35;;;;;;;;;;4204577;34;20520;-67
2021/07/18 08:09:18;;;;;;;6.10;2.55;;;;;;;;;;4204561;34;20110;-67
2021/07/18 08:11:45;;;;;;;3.70;2.72;;;;;;;;;;4204370;34;20643;-67
2021/07/18 08:14:11;;;;;;;6.22;2.58;;;;;;;;;;4204694;34;20109;-67
2021/07/18 08:16:36;;;;;;;2.62;2.30;;;;;;;;;;4204278;34;20120;-67
2021/07/18 08:19:03;;;;;;;4.22;2.60;;;;;;;;;;4204264;34;20174;-67
2021/07/18 08:21:29;;;;;;;3.22;2.58;;;;;;;;;;4204177;34;20221;-67
2021/07/18 08:23:54;;;;;;;5.45;2.95;;;;;;;;;;4204445;34;20149;-67
2021/07/18 08:26:21;;;;;;;8.52;2.42;;;;;;;;;;4204344;34;20657;-67
2021/07/18 08:28:47;;;;;;;4.18;2.53;;;;;;;;;;4204173;34;20197;-67
2021/07/18 08:31:13;;;;;;;2.55;2.35;;;;;;;;;;4191721;34;20121;-67
2021/07/18 08:33:38;;;;;;;3.65;2.60;;;;;;;;;;4206250;34;20162;-67
2021/07/18 08:36:05;;;;;;;3.00;2.40;;;;;;;;;;4206174;34;20106;-66
2021/07/18 08:38:31;;;;;;;3.03;2.35;;;;;;;;;;4206239;34;20117;-66
2021/07/18 08:40:57;;;;;;;2.90;2.60;;;;;;;;;;4206275;34;20514;-66
2021/07/18 08:43:24;;;;;;;5.53;2.28;;;;;;;;;;4206202;34;20565;-66
2021/07/18 08:45:50;;;;;;;3.90;2.20;;;;;;;;;;4206285;34;20531;-67
2021/07/18 08:48:15;;;;;;;3.22;2.40;;;;;;;;;;4206280;34;20140;-67
2021/07/18 08:50:41;;;;;;;8.60;3.20;;;;;;;;;;4193392;34;20116;-67
2021/07/18 08:53:07;;;;;;;3.10;2.40;;;;;;;;;;4206225;34;20128;-67
2021/07/18 08:55:33;;;;;;;2.87;2.58;;;;;;;;;;4206200;34;20124;-67
2021/07/18 08:57:59;;;;;;;4.07;2.83;;;;;;;;;;4193330;34;20137;-67
2021/07/18 09:00:25;;;;;;;2.72;2.42;;;;;;;;;;4206144;34;20106;-67
2021/07/18 09:02:51;;;;;;;5.03;2.67;;;;;;;;;;4205952;34;20128;-67
2021/07/18 09:05:17;;;;;;;4.37;2.37;;;;;;;;;;4206145;34;20439;-67
2021/07/18 09:07:48;;;;;;;2.67;2.45;;;;;;;;;;4206094;34;20105;-67
2021/07/18 09:10:14;;;;;;;5.10;2.30;;;;;;;;;;4193390;34;20205;-67
2021/07/18 09:12:40;;;;;;;5.30;2.47;;;;;;;;;;4206028;34;20465;-67
2021/07/18 09:15:07;;;;;;;3.03;2.40;;;;;;;;;;4206083;34;20125;-67
2021/07/18 09:17:35;;;;;;;3.72;2.72;;;;;;;;;;4205811;34;20177;-67
2021/07/18 09:20:11;;;;;;;3.03;2.72;;;;;;;;;;4206074;34;20145;-67
2021/07/18 09:22:37;;;;;;;3.62;2.75;;;;;;;;;;4205982;34;20093;-67
2021/07/18 09:25:04;;;;;;;2.05;1.70;;;;;;;;;;4205958;34;20135;-67
2021/07/18 09:27:31;;;;;;;3.50;2.80;;;;;;;;;;4205983;34;20102;-67
2021/07/18 09:30:11;;;;;;;4.37;2.30;;;;;;;;;;4205988;34;20300;-67
2021/07/18 09:32:39;;;;;;;7.20;2.37;;;;;;;;;;4205776;34;20113;-67
2021/07/18 09:35:10;;;;;;;4.93;2.95;;;;;;;;;;4205777;34;20204;-67
2021/07/18 09:37:43;;;;;;;4.75;2.42;;;;;;;;;;4205774;34;20668;-67
2021/07/18 09:40:11;;;;;;;3.10;2.62;;;;;;;;;;4193504;34;20138;-67
2021/07/18 09:42:47;;;;;;;4.03;2.30;;;;;;;;;;4205581;34;20200;-66
2021/07/18 09:45:22;;;;;;;7.75;2.85;;;;;;;;;;4205641;34;20090;-67
2021/07/18 09:47:52;;;;;;;;;;;;;;;;;;4206044;34;20122;-66
2021/07/18 09:50:18;;;;;;;2.83;2.17;;;;;;;;;;4205900;34;19977;-66
2021/07/18 09:52:48;;;;;;;7.57;2.60;;;;;;;;;;4205628;34;20570;-67
2021/07/18 09:55:23;;;;;;;5.30;2.65;;;;;;;;;;4193239;34;20092;-66
2021/07/18 09:57:52;;;;;;;4.95;2.40;;;;;;;;;;4205479;34;20583;-66
2021/07/18 10:00:20;;;;;;;4.72;2.90;;;;;;;;;;4205374;34;20140;-67
2021/07/18 10:02:45;;;;;;;3.67;2.70;;;;;;;;;;4205331;34;20105;-66
2021/07/18 10:05:28;;;;;;;3.90;2.75;;;;;;;;;;4205698;34;20200;-66
2021/07/18 10:08:03;;;;;;;3.00;2.70;;;;;;;;;;4205395;34;20454;-66
2021/07/18 10:10:29;;;;;;;3.28;2.67;;;;;;;;;;4192212;34;20185;-65
2021/07/18 10:12:55;;;;;;;4.28;2.83;;;;;;;;;;4192250;34;20118;-66
2021/07/18 10:15:21;;;;;;;5.97;2.50;;;;;;;;;;4192491;34;20193;-66
2021/07/18 10:17:48;;;;;;;3.05;2.40;;;;;;;;;;4205372;34;20522;-67
2021/07/18 10:20:14;;;;;;;4.75;2.83;;;;;;;;;;4192510;34;20246;-66
2021/07/18 10:22:40;;;;;;;4.65;2.37;;;;;;;;;;4192463;34;20109;-66
2021/07/18 10:25:06;;;;;;;6.68;2.40;;;;;;;;;;4205460;34;20257;-67
2021/07/18 10:27:32;;;;;;;4.65;2.42;;;;;;;;;;4205613;34;20137;-66
2021/07/18 10:29:58;;;;;;;3.33;2.62;;;;;;;;;;4181108;34;20615;-64
2021/07/18 10:32:25;;;;;;;2.87;2.45;;;;;;;;;;4192142;34;20120;-68
2021/07/18 10:34:52;;;;;;;4.82;2.55;;;;;;;;;;4181427;34;20105;-66
2021/07/18 10:37:19;;;;;;;5.68;2.90;;;;;;;;;;4192633;34;20120;-64
2021/07/18 10:39:45;;;;;;;10.80;3.35;;;;;;;;;;4205359;34;20163;-66
2021/07/18 10:42:30;;;;;;;2.70;2.50;;;;;;;;;;4204902;34;20118;-66
2021/07/18 10:44:56;;;;;;;4.10;2.75;;;;;;;;;;4205155;34;20217;-66
2021/07/18 10:47:22;;;;;;;3.30;2.83;;;;;;;;;;4205348;34;20521;-65
2021/07/18 10:49:50;;;;;;;2.75;2.33;;;;;;;;;;4205382;34;20121;-65
2021/07/18 10:52:17;;;;;;;2.78;2.12;;;;;;;;;;4204976;34;20117;-65
2021/07/18 10:54:42;;;;;;;3.22;2.83;;;;;;;;;;4204812;34;20118;-65
2021/07/18 10:57:21;;;;;;;3.70;2.70;;;;;;;;;;4204996;34;20537;-66
2021/07/18 10:59:47;;;;;;;9.05;3.00;;;;;;;;;;4204994;34;20114;-66
2021/07/18 11:02:17;;;;;;;10.50;2.80;;;;;;;;;;4204968;34;20116;-65
2021/07/18 11:04:53;;;;;;;5.62;3.20;;;;;;;;;;4192437;34;20193;-65
2021/07/18 11:07:22;;;;;;;3.90;2.37;;;;;;;;;;4191947;34;20131;-65
2021/07/18 11:09:50;;;;;;;4.37;2.80;;;;;;;;;;4204917;34;20148;-66
2021/07/18 11:12:32;;;;;;;7.35;3.12;;;;;;;;;;4204730;34;20172;-66
2021/07/18 11:15:17;;;;;;;3.97;3.20;;;;;;;;;;4204855;34;20513;-66
2021/07/18 11:17:57;;;;;;;7.60;2.70;;;;;;;;;;4204827;34;20110;-70
2021/07/18 11:20:47;;;;;;;3.42;3.12;;;;;;;;;;4191946;34;20220;-62
2021/07/18 11:23:18;;;;;;;3.45;2.55;;;;;;;;;;4204812;34;20129;-62
2021/07/18 11:25:48;;;;;;;3.30;2.97;;;;;;;;;;4204651;34;20516;-62
2021/07/18 11:28:49;;;;;;;3.30;3.00;;;;;;;;;;4204953;34;20211;-63
2021/07/18 11:31:18;;;;;;;5.18;2.90;;;;;;;;;;4178503;34;20132;-63
2021/07/18 11:33:44;;;;;;;8.25;2.85;;;;;;;;;;4204598;34;20443;-63
2021/07/18 11:36:15;;;;;;;3.65;3.10;;;;;;;;;;4204547;34;20097;-66
2021/07/18 11:38:42;;;;;;;5.90;2.80;;;;;;;;;;4207807;34;20504;-66
2021/07/18 11:41:30;;;;;;;10.85;2.80;;;;;;;;;;4204500;34;20145;-64
2021/07/18 11:44:02;;;;;;;8.85;3.08;;;;;;;;;;4205301;34;20102;-63
2021/07/18 11:46:40;;;;;;;7.18;3.70;;;;;;;;;;4202215;34;20453;-63
2021/07/18 11:49:07;;;;;;;7.82;3.05;;;;;;;;;;4180528;34;20502;-63
2021/07/18 11:51:34;;;;;;;7.10;3.30;;;;;;;;;;4191448;34;20317;-63
2021/07/18 11:54:00;;;;;;;3.37;3.05;;;;;;;;;;4204531;34;20126;-64
2021/07/18 11:56:30;;;;;;;2.47;2.25;;;;;;;;;;4216009;33;20188;-63
2021/07/18 11:59:04;;;;;;;10.15;3.45;;;;;;;;;;4218398;34;20086;-63
2021/07/18 12:01:31;;;;;;;7.32;3.58;;;;;;;;;;4218136;33;20109;-63
2021/07/18 12:03:57;;;;;;;4.00;3.28;;;;;;;;;;4218187;34;20178;-63
2021/07/18 12:06:28;;;;;;;8.43;3.33;;;;;;;;;;4217505;33;20121;-63
2021/07/18 12:08:54;;;;;;;3.65;2.97;;;;;;;;;;4218331;34;20563;-63
2021/07/18 12:11:29;;;;;;;9.18;3.58;;;;;;;;;;4205295;34;20147;-63
2021/07/18 12:13:55;;;;;;;3.40;2.85;;;;;;;;;;4190407;34;20122;-63
2021/07/18 12:16:21;;;;;;;11.70;3.85;;;;;;;;;;4190392;34;20562;-63
2021/07/18 12:18:49;;;;;;;5.57;3.97;;;;;;;;;;4190336;34;20121;-63
2021/07/18 12:21:24;;;;;;;4.55;3.70;;;;;;;;;;4190353;34;20498;-62
2021/07/18 12:24:21;;;;;;;6.18;3.70;;;;;;;;;;4190423;34;20097;-63
2021/07/18 12:26:48;;;;;;;8.57;3.87;;;;;;;;;;4190440;34;20133;-63
2021/07/18 12:29:14;;;;;;;6.95;3.83;;;;;;;;;;4190265;34;20189;-62
2021/07/18 12:31:42;;;;;;;6.40;4.03;;;;;;;;;;4190056;34;20538;-64
2021/07/18 12:34:08;;;;;;;5.03;3.42;;;;;;;;;;4190110;34;20482;-63
2021/07/18 12:37:05;;;;;;;5.90;4.50;;;;;;;;;;4190097;34;20497;-65
2021/07/18 12:39:32;;;;;;;6.55;4.62;;;;;;;;;;4203173;34;20102;-65
2021/07/18 12:42:00;;;;;;;4.72;4.12;;;;;;;;;;4206421;34;20124;-65
2021/07/18 12:44:27;;;;;;;9.75;4.10;;;;;;;;;;4191326;34;20381;-64
2021/07/18 12:47:21;;;;;;;7.70;4.18;;;;;;;;;;4191273;34;20213;-65
2021/07/18 12:50:03;;;;;;;4.57;3.72;;;;;;;;;;4205277;34;20542;-68
2021/07/18 12:52:29;;;;;;;4.65;4.05;;;;;;;;;;4204116;34;20562;-64
2021/07/18 12:54:55;;;;;;;9.77;4.87;;;;;;;;;;4204442;34;20149;-65
2021/07/18 12:57:31;;;;;;;4.90;4.03;;;;;;;;;;4205006;34;20129;-65
2021/07/18 13:00:04;;;;;;;3.40;2.95;;;;;;;;;;4204185;34;20517;-63
2021/07/18 13:02:30;;;;;;;5.18;4.68;;;;;;;;;;4203954;34;20220;-63
2021/07/18 13:05:06;;;;;;;13.40;4.47;;;;;;;;;;4205224;34;20129;-66
2021/07/18 13:07:32;;;;;;;4.10;3.17;;;;;;;;;;4203545;34;20177;-62
2021/07/18 13:10:17;;;;;;;4.07;3.67;;;;;;;;;;4204352;34;20118;-63
2021/07/18 13:12:44;;;;;;;7.25;3.85;;;;;;;;;;4204812;34;20200;-62
2021/07/18 13:15:18;;;;;;;4.03;3.30;;;;;;;;;;4217402;34;20117;-63
2021/07/18 13:17:57;;;;;;;7.62;3.67;;;;;;;;;;4217326;34;20098;-63
2021/07/18 13:20:24;;;;;;;7.50;4.10;;;;;;;;;;4219547;34;20148;-63
2021/07/18 13:22:50;;;;;;;19.27;3.87;;;;;;;;;;4219811;33;20101;-63
2021/07/18 13:25:24;;;;;;;4.20;3.45;;;;;;;;;;4214009;34;20565;-63
2021/07/18 13:27:51;;;;;;;6.00;4.35;;;;;;;;;;4206573;34;20173;-62
2021/07/18 13:30:20;;;;;;;4.95;3.47;;;;;;;;;;4206013;34;20106;-62
2021/07/18 13:32:46;;;;;;;4.50;3.62;;;;;;;;;;4205784;34;20132;-62
2021/07/18 13:35:17;;;;;;;7.55;3.90;;;;;;;;;;4205690;34;20125;-63
2021/07/18 13:37:59;;;;;;;6.22;3.97;;;;;;;;;;4205495;34;20118;-62
2021/07/18 13:40:37;;;;;;;5.10;3.97;;;;;;;;;;4205616;34;20499;-62
2021/07/18 13:43:16;;;;;;;6.95;3.80;;;;;;;;;;4205444;34;20124;-62
2021/07/18 13:45:46;;;;;;;9.52;3.97;;;;;;;;;;4205429;34;20125;-62
2021/07/18 13:48:14;;;;;;;9.55;4.25;;;;;;;;;;4192463;34;20541;-63
2021/07/18 13:50:41;;;;;;;4.22;3.65;;;;;;;;;;4205234;34;20129;-62
2021/07/18 13:53:08;;;;;;;7.95;4.53;;;;;;;;;;4205404;34;20113;-63
2021/07/18 13:55:34;;;;;;;5.32;4.28;;;;;;;;;;4205922;34;20094;-62
2021/07/18 13:58:01;;;;;;;5.45;3.83;;;;;;;;;;4205736;34;20126;-62
2021/07/18 14:00:27;;;;;;;5.35;4.00;;;;;;;;;;4205298;34;20118;-62
2021/07/18 14:02:53;;;;;;;4.43;3.67;;;;;;;;;;4205470;34;20131;-63
2021/07/18 14:05:19;;;;;;;7.65;3.83;;;;;;;;;;4205223;34;20141;-63
2021/07/18 14:07:45;;;;;;;4.95;3.30;;;;;;;;;;4205650;34;20129;-63
2021/07/18 14:10:12;;;;;;;7.95;3.87;;;;;;;;;;4205201;34;20530;-62
2021/07/18 14:12:41;;;;;;;8.68;4.55;;;;;;;;;;4181032;34;20119;-62
2021/07/18 14:15:09;;;;;;;5.93;3.80;;;;;;;;;;4205059;34;20114;-63
2021/07/18 14:17:35;;;;;;;4.15;3.67;;;;;;;;;;4204976;34;20179;-62
2021/07/18 14:20:01;;;;;;;5.43;4.07;;;;;;;;;;4205106;34;20141;-64
2021/07/18 14:22:27;;;;;;;7.40;4.30;;;;;;;;;;4192558;34;20622;-63
2021/07/18 14:24:53;;;;;;;6.32;3.95;;;;;;;;;;4192284;34;20549;-65
2021/07/18 14:27:18;;;;;;;6.20;4.05;;;;;;;;;;4204942;34;20121;-66
2021/07/18 14:29:44;;;;;;;10.07;4.68;;;;;;;;;;4204645;34;20195;-66
2021/07/18 14:32:10;;;;;;;7.10;4.45;;;;;;;;;;4205199;34;20111;-67
2021/07/18 14:34:36;;;;;;;6.22;4.62;;;;;;;;;;4205259;34;20136;-66
2021/07/18 14:37:02;;;;;;;6.55;4.97;;;;;;;;;;4205352;34;20429;-65
2021/07/18 14:39:28;;;;;;;6.68;4.47;;;;;;;;;;4205092;34;20137;-66
2021/07/18 14:41:54;;;;;;;6.47;4.87;;;;;;;;;;4192144;34;20129;-65
2021/07/18 14:44:20;;;;;;;5.60;4.65;;;;;;;;;;4204832;34;20126;-65